createdAt,value
2019-02-12T00:01:33.427Z,2.33
2019-02-12T00:04:05.187Z,2.70
2019-02-12T00:06:38.854Z,2.40
2019-02-12T00:09:11.709Z,3.30
2019-02-12T00:11:43.493Z,2.53
2019-02-12T00:14:15.341Z,2.77
2019-02-12T00:16:47.126Z,2.53
2019-02-12T00:19:27.377Z,2.30
2019-02-12T00:21:58.457Z,2.80
2019-02-12T00:24:31.029Z,2.43
2019-02-12T00:27:03.632Z,2.90
2019-02-12T00:29:36.370Z,3.40
2019-02-12T00:32:06.529Z,3.17
2019-02-12T00:34:37.443Z,3.50
2019-02-12T00:37:08.891Z,3.20
2019-02-12T00:39:43.774Z,3.50
2019-02-12T00:42:16.435Z,3.60
2019-02-12T00:44:50.993Z,2.57
2019-02-12T00:47:22.547Z,2.90
2019-02-12T00:49:55.380Z,3.20
2019-02-12T00:52:28.094Z,3.57
2019-02-12T00:55:04.964Z,3.13
2019-02-12T00:57:35.571Z,3.93
2019-02-12T01:00:09.175Z,3.40
2019-02-12T01:02:39.959Z,3.37
2019-02-12T01:05:12.894Z,3.33
2019-02-12T01:07:44.728Z,3.10
2019-02-12T01:10:17.613Z,2.87
2019-02-12T01:12:56.488Z,3.40
2019-02-12T01:15:31.285Z,3.63
2019-02-12T01:18:03.516Z,3.30
2019-02-12T01:20:33.487Z,3.30
2019-02-12T01:23:03.319Z,3.70
2019-02-12T01:25:33.574Z,3.80
2019-02-12T01:28:06.474Z,3.70
2019-02-12T01:30:37.252Z,3.33
2019-02-12T01:33:07.023Z,3.43
2019-02-12T01:35:36.849Z,3.27
2019-02-12T01:38:06.971Z,3.57
2019-02-12T01:40:38.155Z,3.57
2019-02-12T01:43:09.313Z,3.33
2019-02-12T01:45:40.951Z,3.23
2019-02-12T01:48:11.211Z,3.67
2019-02-12T01:50:41.485Z,3.83
2019-02-12T01:53:13.231Z,3.87
2019-02-12T01:55:43.380Z,3.27
2019-02-12T01:58:13.569Z,3.30
2019-02-12T02:00:44.714Z,3.07
2019-02-12T02:03:17.186Z,3.53
2019-02-12T02:05:47.741Z,3.43
2019-02-12T02:08:22.188Z,3.23
2019-02-12T02:10:52.293Z,4.07
2019-02-12T02:13:24.405Z,3.17
2019-02-12T02:15:59.276Z,3.60
2019-02-12T02:18:29.304Z,3.97
2019-02-12T02:20:59.549Z,3.80
2019-02-12T02:23:33.299Z,3.73
2019-02-12T02:26:03.009Z,3.77
2019-02-12T02:28:33.164Z,3.87
2019-02-12T02:31:16.582Z,4.20
2019-02-12T02:33:46.578Z,4.40
2019-02-12T02:36:16.579Z,4.30
2019-02-12T02:38:48.172Z,3.70
2019-02-12T02:41:19.628Z,4.13
2019-02-12T02:43:51.265Z,4.77
2019-02-12T02:46:20.731Z,5.27
2019-02-12T02:48:50.503Z,4.80
2019-02-12T02:51:21.097Z,4.90
2019-02-12T02:53:51.692Z,4.60
2019-02-12T02:56:22.349Z,5.13
2019-02-12T02:58:52.073Z,5.70
2019-02-12T03:01:23.149Z,5.30
2019-02-12T03:03:53.923Z,5.43
2019-02-12T03:06:24.035Z,6.37
2019-02-12T03:08:53.962Z,5.80
2019-02-12T03:11:24.493Z,6.07
2019-02-12T03:13:55.556Z,6.37
2019-02-12T03:16:26.498Z,6.97
2019-02-12T03:18:56.915Z,6.60
2019-02-12T03:21:27.368Z,6.67
2019-02-12T03:23:58.850Z,7.27
2019-02-12T03:26:28.556Z,7.10
2019-02-12T03:28:59.085Z,6.93
2019-02-12T03:31:30.285Z,6.40
2019-02-12T03:34:00.196Z,5.87
2019-02-12T03:36:31.638Z,6.33
2019-02-12T03:39:01.295Z,6.90
2019-02-12T03:41:33.758Z,6.60
2019-02-12T03:44:04.051Z,6.67
2019-02-12T03:46:34.689Z,6.63
2019-02-12T03:49:04.885Z,6.77
2019-02-12T03:51:35.790Z,6.90
2019-02-12T03:54:06.757Z,6.67
2019-02-12T03:56:39.386Z,6.53
2019-02-12T03:59:09.497Z,7.43
2019-02-12T04:01:39.770Z,8.10
2019-02-12T04:04:10.628Z,7.67
2019-02-12T04:06:40.613Z,6.63
2019-02-12T04:09:10.465Z,7.03
2019-02-12T04:11:41.337Z,7.37
2019-02-12T04:14:12.179Z,7.00
2019-02-12T04:16:42.252Z,7.00
2019-02-12T04:19:11.882Z,6.97
2019-02-12T04:21:42.560Z,7.30
2019-02-12T04:24:14.802Z,7.23
2019-02-12T04:26:45.159Z,7.17
2019-02-12T04:29:16.057Z,7.33
2019-02-12T04:31:46.506Z,6.73
2019-02-12T04:34:17.653Z,6.67
2019-02-12T04:36:47.321Z,8.00
2019-02-12T04:39:20.809Z,6.73
2019-02-12T04:41:50.612Z,6.67
2019-02-12T04:44:23.465Z,6.90
2019-02-12T04:46:53.471Z,6.47
2019-02-12T04:49:24.874Z,6.83
2019-02-12T04:51:54.923Z,7.17
2019-02-12T04:54:24.977Z,6.77
2019-02-12T04:56:57.343Z,7.00
2019-02-12T04:59:28.015Z,6.70
2019-02-12T05:01:58.736Z,6.63
2019-02-12T05:04:28.683Z,7.10
2019-02-12T05:07:01.962Z,7.20
2019-02-12T05:09:39.936Z,6.60
2019-02-12T05:12:11.946Z,6.77
2019-02-12T05:14:42.005Z,6.70
2019-02-12T05:17:12.405Z,7.63
2019-02-12T05:19:44.158Z,7.70
2019-02-12T05:22:14.778Z,7.73
2019-02-12T05:24:46.916Z,7.50
2019-02-12T05:27:19.201Z,7.67
2019-02-12T05:29:49.642Z,7.37
2019-02-12T05:32:19.829Z,7.40
2019-02-12T05:34:49.800Z,7.70
2019-02-12T05:37:24.549Z,7.60
2019-02-12T05:39:55.150Z,7.63
2019-02-12T05:42:26.056Z,7.77
2019-02-12T05:44:56.899Z,7.90
2019-02-12T05:47:27.229Z,7.73
2019-02-12T05:49:58.646Z,7.43
2019-02-12T05:52:29.091Z,7.53
2019-02-12T05:54:59.874Z,7.20
2019-02-12T05:57:31.636Z,8.13
2019-02-12T06:00:01.387Z,7.70
2019-02-12T06:02:36.491Z,6.90
2019-02-12T06:05:07.214Z,7.60
2019-02-12T06:07:37.654Z,7.20
2019-02-12T06:10:12.222Z,7.47
2019-02-12T06:12:43.934Z,7.37
2019-02-12T06:15:15.969Z,7.77
2019-02-12T06:17:46.708Z,7.50
2019-02-12T06:20:16.847Z,7.07
2019-02-12T06:22:48.106Z,7.30
2019-02-12T06:25:18.206Z,6.30
2019-02-12T06:27:48.407Z,9.07
2019-02-12T06:30:18.240Z,7.63
2019-02-12T06:32:48.116Z,6.23
2019-02-12T06:35:18.274Z,6.70
2019-02-12T06:37:49.691Z,7.00
2019-02-12T06:40:20.527Z,6.87
2019-02-12T06:42:50.623Z,6.93
2019-02-12T06:45:23.199Z,7.87
2019-02-12T06:47:53.602Z,6.97
2019-02-12T06:50:23.919Z,7.30
2019-02-12T06:52:54.806Z,6.53
2019-02-12T06:55:25.271Z,8.67
2019-02-12T06:57:56.646Z,7.20
2019-02-12T07:00:29.606Z,6.90
2019-02-12T07:03:14.995Z,6.37
2019-02-12T07:06:11.283Z,7.20
2019-02-12T07:09:09.217Z,8.27
2019-02-12T07:12:07.027Z,7.67
2019-02-12T07:14:58.480Z,7.63
2019-02-12T07:18:34.851Z,7.73
2019-02-12T07:21:33.271Z,7.70
2019-02-12T07:24:31.335Z,7.80
2019-02-12T07:27:50.647Z,6.87
2019-02-12T07:31:00.979Z,6.90
2019-02-12T07:34:08.907Z,6.90
2019-02-12T07:36:52.558Z,7.27
2019-02-12T07:39:53.373Z,7.90
2019-02-12T07:42:47.974Z,6.80
2019-02-12T07:45:58.833Z,6.63
2019-02-12T07:49:21.204Z,7.10
2019-02-12T07:52:30.518Z,7.17
2019-02-12T07:55:42.827Z,6.73
2019-02-12T07:58:56.818Z,6.37
2019-02-12T08:02:02.673Z,6.83
2019-02-12T08:05:23.077Z,6.60
2019-02-12T08:08:44.293Z,7.50
2019-02-12T08:11:38.086Z,7.03
2019-02-12T08:14:30.006Z,7.20
2019-02-12T08:17:54.226Z,7.37
2019-02-12T08:21:17.541Z,8.80
2019-02-12T08:24:17.598Z,7.70
2019-02-12T08:27:46.834Z,7.83
2019-02-12T08:30:48.699Z,7.70
2019-02-12T08:34:08.266Z,7.17
2019-02-12T08:37:12.633Z,7.17
2019-02-12T08:40:11.850Z,8.50
2019-02-12T08:43:09.834Z,8.47
2019-02-12T08:46:08.038Z,8.60
2019-02-12T08:48:59.532Z,8.73
2019-02-12T08:52:09.675Z,7.53
2019-02-12T08:55:26.483Z,7.50
2019-02-12T08:58:26.888Z,6.67
2019-02-12T09:01:40.835Z,7.37
2019-02-12T09:04:40.613Z,7.60
2019-02-12T09:07:25.298Z,7.83
2019-02-12T09:10:36.528Z,7.33
2019-02-12T09:13:38.068Z,6.93
2019-02-12T09:16:45.928Z,7.37
2019-02-12T09:19:27.952Z,6.77
2019-02-12T09:22:26.230Z,8.50
2019-02-12T09:25:37.322Z,6.43
2019-02-12T09:28:23.677Z,7.37
2019-02-12T09:31:45.346Z,7.63
2019-02-12T09:35:26.656Z,6.73
2019-02-12T09:38:20.080Z,6.80
2019-02-12T09:41:34.749Z,6.57
2019-02-12T09:44:55.269Z,6.80
2019-02-12T09:48:09.266Z,8.00
2019-02-12T09:51:26.795Z,7.43
2019-02-12T09:54:30.723Z,7.10
2019-02-12T09:57:42.967Z,7.03
2019-02-12T10:00:40.580Z,7.80
2019-02-12T10:03:50.114Z,7.80
2019-02-12T10:07:03.511Z,8.00
2019-02-12T10:09:59.301Z,7.17
2019-02-12T10:12:52.423Z,7.20
2019-02-12T10:16:01.987Z,6.77
2019-02-12T10:18:55.065Z,6.40
2019-02-12T10:21:45.156Z,7.03
2019-02-12T10:24:46.371Z,6.30
2019-02-12T10:28:00.775Z,7.37
2019-02-12T10:30:52.570Z,5.77
2019-02-12T10:33:28.039Z,5.77
2019-02-12T10:36:05.605Z,5.63
2019-02-12T10:38:42.552Z,5.00
2019-02-12T10:41:18.282Z,5.50
2019-02-12T10:44:03.521Z,5.50
2019-02-12T10:46:39.530Z,5.77
2019-02-12T10:49:18.196Z,5.17
2019-02-12T10:51:56.187Z,5.53
2019-02-12T10:54:36.381Z,5.70
2019-02-12T10:57:12.303Z,5.47
2019-02-12T10:59:42.571Z,7.53
2019-02-12T11:02:21.790Z,9.40
2019-02-12T11:04:58.973Z,11.50
2019-02-12T11:07:45.872Z,5.73
2019-02-12T11:10:26.273Z,6.90
2019-02-12T11:13:11.866Z,6.97
2019-02-12T11:15:46.521Z,6.20
2019-02-12T11:18:18.522Z,10.47
2019-02-12T11:20:52.985Z,6.80
2019-02-12T11:23:33.390Z,5.60
2019-02-12T11:26:13.227Z,6.43
2019-02-12T11:28:44.363Z,7.50
2019-02-12T11:31:15.869Z,6.50
2019-02-12T11:33:52.468Z,7.03
2019-02-12T11:36:27.160Z,6.37
2019-02-12T11:39:04.809Z,7.77
2019-02-12T11:41:37.226Z,8.17
2019-02-12T11:44:09.836Z,7.50
2019-02-12T11:46:42.174Z,6.93
2019-02-12T11:49:14.394Z,7.90
2019-02-12T11:52:00.635Z,6.83
2019-02-12T11:54:43.827Z,7.33
2019-02-12T11:57:15.806Z,7.57
2019-02-12T12:00:02.038Z,6.67
2019-02-12T12:02:42.106Z,8.13
2019-02-12T12:05:13.601Z,6.17
2019-02-12T12:07:50.140Z,7.43
2019-02-12T12:10:25.411Z,6.43
2019-02-12T12:13:06.976Z,7.73
2019-02-12T12:16:00.650Z,8.10
2019-02-12T12:18:35.641Z,8.20
2019-02-12T12:21:26.163Z,7.73
2019-02-12T12:24:00.257Z,7.07
2019-02-12T12:26:36.438Z,7.50
2019-02-12T12:29:09.194Z,6.70
2019-02-12T12:31:42.457Z,6.70
2019-02-12T12:34:12.640Z,8.83
2019-02-12T12:36:56.860Z,7.13
2019-02-12T12:39:45.501Z,7.60
2019-02-12T12:42:18.870Z,7.03
2019-02-12T12:44:56.045Z,6.67
2019-02-12T12:47:28.059Z,6.73
2019-02-12T12:49:59.205Z,6.80
2019-02-12T12:52:46.418Z,7.07
2019-02-12T12:55:17.304Z,6.67
2019-02-12T12:57:49.526Z,5.97
2019-02-12T13:00:24.603Z,6.73
2019-02-12T13:02:58.542Z,6.50
2019-02-12T13:05:30.111Z,6.70
2019-02-12T13:08:01.094Z,5.97
2019-02-12T13:10:34.189Z,6.33
2019-02-12T13:13:07.403Z,5.63
2019-02-12T13:15:40.463Z,6.03
2019-02-12T13:18:11.610Z,5.87
2019-02-12T13:20:45.525Z,5.53
2019-02-12T13:23:38.613Z,5.90
2019-02-12T13:26:10.702Z,6.57
2019-02-12T13:28:41.314Z,5.13
2019-02-12T13:31:14.620Z,4.93
2019-02-12T13:33:59.719Z,5.00
2019-02-12T13:36:30.718Z,5.87
2019-02-12T13:39:01.806Z,6.10
2019-02-12T13:41:35.687Z,5.47
2019-02-12T13:44:10.189Z,6.17
2019-02-12T13:46:42.088Z,5.37
2019-02-12T13:49:23.950Z,5.13
2019-02-12T13:51:54.575Z,4.90
2019-02-12T13:54:27.169Z,5.73
2019-02-12T13:57:00.757Z,5.50
2019-02-12T13:59:35.102Z,5.60
2019-02-12T14:02:08.127Z,5.53
2019-02-12T14:04:40.325Z,5.13
2019-02-12T14:07:10.325Z,5.33
2019-02-12T14:09:41.890Z,5.53
2019-02-12T14:12:13.738Z,6.00
2019-02-12T14:14:51.530Z,5.07
2019-02-12T14:17:25.158Z,5.50
2019-02-12T14:19:58.798Z,5.37
2019-02-12T14:22:29.877Z,4.93
2019-02-12T14:25:04.810Z,4.83
2019-02-12T14:27:47.867Z,5.40
2019-02-12T14:30:21.445Z,4.80
2019-02-12T14:32:54.930Z,5.53
2019-02-12T14:35:26.549Z,5.60
2019-02-12T14:38:01.244Z,4.90
2019-02-12T14:40:36.951Z,5.10
2019-02-12T14:43:14.020Z,5.30
2019-02-12T14:45:48.034Z,4.80
2019-02-12T14:48:22.511Z,5.23
2019-02-12T14:50:56.615Z,5.80
2019-02-12T14:53:27.854Z,5.10
2019-02-12T14:56:01.404Z,4.63
2019-02-12T14:58:43.979Z,4.30
2019-02-12T15:01:21.514Z,4.50
2019-02-12T15:04:02.797Z,4.63
2019-02-12T15:06:40.414Z,5.03
2019-02-12T15:12:15.716Z,4.73
2019-02-12T15:14:46.916Z,4.80
2019-02-12T15:17:19.897Z,4.80
2019-02-12T15:19:53.111Z,5.50
2019-02-12T15:22:24.679Z,4.73
2019-02-12T15:24:55.999Z,5.27
2019-02-12T15:27:28.348Z,5.13
2019-02-12T15:30:04.056Z,5.30
2019-02-12T15:32:41.724Z,5.57
2019-02-12T15:35:18.039Z,4.90
2019-02-12T15:37:49.482Z,5.60
2019-02-12T15:40:21.448Z,6.07
2019-02-12T15:42:55.773Z,7.20
2019-02-12T15:45:28.981Z,5.10
2019-02-12T15:47:59.861Z,5.83
2019-02-12T15:50:37.244Z,5.23
2019-02-12T15:53:10.542Z,5.10
2019-02-12T15:55:51.149Z,5.50
2019-02-12T15:58:16.843Z,6.37
2019-02-12T16:00:51.800Z,6.17
2019-02-12T16:03:22.354Z,5.87
2019-02-12T16:05:52.614Z,6.33
2019-02-12T16:08:33.424Z,6.07
2019-02-12T16:11:06.590Z,5.70
2019-02-12T16:13:42.115Z,6.17
2019-02-12T16:16:14.174Z,5.73
2019-02-12T16:18:47.748Z,6.37
2019-02-12T16:21:19.599Z,7.10
2019-02-12T16:23:50.986Z,6.53
2019-02-12T16:26:23.353Z,6.93
2019-02-12T16:28:56.869Z,7.37
2019-02-12T16:31:32.525Z,7.00
2019-02-12T16:34:05.314Z,6.67
2019-02-12T16:36:37.445Z,7.80
2019-02-12T16:39:08.549Z,8.07
2019-02-12T16:41:45.144Z,7.03
2019-02-12T16:44:27.726Z,7.67
2019-02-12T16:46:59.543Z,7.30
2019-02-12T16:49:32.494Z,9.00
2019-02-12T16:52:02.707Z,7.57
2019-02-12T16:54:37.661Z,7.27
2019-02-12T16:57:08.195Z,8.07
2019-02-12T16:59:40.902Z,7.53
2019-02-12T17:02:12.519Z,7.67
2019-02-12T17:04:45.894Z,8.27
2019-02-12T17:07:24.013Z,8.00
2019-02-12T17:10:00.414Z,7.50
2019-02-12T17:12:33.532Z,9.27
2019-02-12T17:15:08.699Z,9.17
2019-02-12T17:17:42.903Z,9.27
2019-02-12T17:20:23.875Z,9.00
2019-02-12T17:23:00.497Z,8.30
2019-02-12T17:25:32.298Z,8.33
2019-02-12T17:28:03.139Z,8.67
2019-02-12T17:30:37.373Z,8.70
2019-02-12T17:33:08.515Z,9.13
2019-02-12T17:35:39.223Z,9.70
2019-02-12T17:38:11.494Z,8.93
2019-02-12T17:40:47.018Z,8.90
2019-02-12T17:43:22.307Z,9.63
2019-02-12T17:45:54.184Z,8.87
2019-02-12T17:48:25.078Z,9.20
2019-02-12T17:50:56.699Z,9.13
2019-02-12T17:53:31.334Z,8.90
2019-02-12T17:56:07.960Z,10.73
2019-02-12T17:58:44.108Z,9.53
2019-02-12T18:01:15.825Z,9.13
2019-02-12T18:03:50.661Z,9.13
2019-02-12T18:06:20.809Z,9.07
2019-02-12T18:08:52.990Z,9.43
2019-02-12T18:11:24.712Z,9.17
2019-02-12T18:13:55.617Z,9.47
2019-02-12T18:16:28.939Z,9.90
2019-02-12T18:19:01.115Z,9.60
2019-02-12T18:21:31.577Z,10.27
2019-02-12T18:24:02.717Z,9.37
2019-02-12T18:26:34.477Z,8.57
2019-02-12T18:29:09.949Z,9.00
2019-02-12T18:31:41.131Z,10.10
2019-02-12T18:34:11.740Z,10.37
2019-02-12T18:36:44.905Z,9.23
2019-02-12T18:39:16.792Z,9.13
2019-02-12T18:41:54.074Z,10.10
2019-02-12T18:44:29.283Z,9.17
2019-02-12T18:47:00.237Z,9.77
2019-02-12T18:49:32.186Z,9.50
2019-02-12T18:52:05.329Z,9.90
2019-02-12T18:54:38.914Z,10.87
2019-02-12T18:57:13.668Z,9.87
2019-02-12T18:59:44.689Z,9.90
2019-02-12T19:02:15.289Z,10.23
2019-02-12T19:04:49.221Z,10.23
2019-02-12T19:07:19.147Z,10.23
2019-02-12T19:09:49.370Z,10.20
2019-02-12T19:12:21.970Z,10.57
2019-02-12T19:14:54.346Z,10.70
2019-02-12T19:17:26.110Z,11.30
2019-02-12T19:19:59.277Z,10.67
2019-02-12T19:22:30.278Z,10.27
2019-02-12T19:25:02.436Z,11.43
2019-02-12T19:27:33.202Z,10.00
2019-02-12T19:30:05.947Z,11.10
2019-02-12T19:32:39.429Z,10.50
2019-02-12T19:35:16.752Z,10.73
2019-02-12T19:37:47.630Z,9.83
2019-02-12T19:40:19.129Z,10.60
2019-02-12T19:42:50.883Z,10.57
2019-02-12T19:45:26.238Z,9.80
2019-02-12T19:47:59.344Z,11.90
2019-02-12T19:50:29.375Z,11.13
2019-02-12T19:53:00.292Z,10.63
2019-02-12T19:55:31.551Z,10.27
2019-02-12T19:58:06.040Z,11.20
2019-02-12T20:00:36.603Z,11.47
2019-02-12T20:03:08.939Z,10.77
2019-02-12T20:05:40.688Z,10.87
2019-02-12T20:08:16.999Z,10.77
2019-02-12T20:10:52.042Z,15.93
2019-02-12T20:13:23.647Z,10.70
2019-02-12T20:15:56.716Z,10.83
2019-02-12T20:18:27.547Z,10.90
2019-02-12T20:21:01.774Z,10.10
2019-02-12T20:23:34.279Z,11.10
2019-02-12T20:26:05.481Z,12.20
2019-02-12T20:28:37.057Z,12.80
2019-02-12T20:31:06.952Z,11.63
2019-02-12T20:33:37.463Z,11.73
2019-02-12T20:36:09.092Z,11.43
2019-02-12T20:38:41.922Z,11.00
2019-02-12T20:41:13.797Z,12.30
2019-02-12T20:43:44.680Z,12.53
2019-02-12T20:46:15.461Z,12.53
2019-02-12T20:48:46.715Z,11.80
2019-02-12T20:51:16.974Z,11.77
2019-02-12T20:53:49.039Z,12.63
2019-02-12T20:56:20.134Z,11.47
2019-02-12T20:58:50.993Z,11.83
2019-02-12T21:01:29.132Z,12.90
2019-02-12T21:03:59.696Z,12.93
2019-02-12T21:06:33.421Z,11.83
2019-02-12T21:09:05.296Z,13.17
2019-02-12T21:11:36.112Z,12.50
2019-02-12T21:14:06.955Z,13.37
2019-02-12T21:16:37.889Z,12.70
2019-02-12T21:19:08.932Z,11.53
2019-02-12T21:21:39.223Z,12.67
2019-02-12T21:24:11.796Z,12.50
2019-02-12T21:26:43.820Z,12.47
2019-02-12T21:29:17.045Z,11.60
2019-02-12T21:31:52.067Z,11.67
2019-02-12T21:34:27.997Z,12.13
2019-02-12T21:36:59.759Z,11.97
2019-02-12T21:39:33.058Z,12.40
2019-02-12T21:42:04.742Z,13.17
2019-02-12T21:44:36.403Z,12.67
2019-02-12T21:47:09.183Z,13.37
2019-02-12T21:49:41.502Z,13.00
2019-02-12T21:52:12.262Z,11.93
2019-02-12T21:54:45.268Z,11.03
2019-02-12T21:57:18.075Z,12.33
2019-02-12T21:59:48.983Z,12.17
2019-02-12T22:02:20.088Z,12.30
2019-02-12T22:04:52.109Z,11.97
2019-02-12T22:07:26.483Z,12.93
2019-02-12T22:09:58.689Z,12.13
2019-02-12T22:12:30.003Z,12.30
2019-02-12T22:15:00.992Z,13.17
2019-02-12T22:17:32.230Z,12.47
2019-02-12T22:20:04.175Z,11.57
2019-02-12T22:22:38.330Z,12.73
2019-02-12T22:25:11.984Z,12.43
2019-02-12T22:27:43.214Z,11.93
2019-02-12T22:30:19.058Z,11.80
2019-02-12T22:32:49.542Z,11.57
2019-02-12T22:35:21.201Z,12.90
2019-02-12T22:37:53.122Z,11.80
2019-02-12T22:40:24.433Z,11.70
2019-02-12T22:42:56.250Z,12.80
2019-02-12T22:45:26.934Z,12.90
2019-02-12T22:47:57.106Z,12.23
2019-02-12T22:50:29.339Z,12.90
2019-02-12T22:53:00.407Z,11.03
2019-02-12T22:55:33.178Z,12.07
2019-02-12T22:58:03.558Z,11.77
2019-02-12T23:00:57.005Z,11.77
2019-02-12T23:03:27.880Z,12.30
2019-02-12T23:06:00.399Z,11.50
2019-02-12T23:08:30.975Z,12.03
2019-02-12T23:11:04.238Z,11.77
2019-02-12T23:13:40.491Z,12.30
2019-02-12T23:16:14.440Z,12.07
2019-02-12T23:18:47.619Z,11.27
2019-02-12T23:21:18.641Z,12.17
2019-02-12T23:23:51.366Z,11.73
2019-02-12T23:26:21.507Z,11.13
2019-02-12T23:28:54.703Z,11.13
2019-02-12T23:31:26.919Z,12.20
2019-02-12T23:33:56.849Z,11.70
2019-02-12T23:36:26.416Z,11.73
2019-02-12T23:38:56.243Z,11.83
2019-02-12T23:41:28.790Z,11.67
2019-02-12T23:44:00.784Z,11.47
2019-02-12T23:46:32.468Z,11.97
2019-02-12T23:49:02.751Z,11.10
2019-02-12T23:51:35.349Z,10.67
2019-02-12T23:54:09.132Z,12.43
2019-02-12T23:56:42.733Z,11.10
2019-02-12T23:59:14.048Z,11.93
